Time;durP1;ratioP1;P1;durP2;ratioP2;P2;SDS_P1;SDS_P2;PMS_P1;PMS_P2;Temp;Humidity;BMP_temperature;BMP_pressure;BME280_temperature;BME280_humidity;BME280_pressure;Samples;Min_cycle;Max_cycle;Signal;HPM_P1;HPM_P2
2022/04/12 05:00:29;;;;;;;4.83;3.80;;;7.30;97.20;;;;;;1694352;29;20187;-67
2022/04/12 05:01:21;;;;;;;4.38;3.97;;;7.30;97.20;;;;;;1694288;29;20215;-67
2022/04/12 05:02:12;;;;;;;4.72;3.40;;;7.30;97.20;;;;;;1694134;29;20774;-67
2022/04/12 05:03:04;;;;;;;4.70;4.15;;;7.30;97.20;;;;;;1694261;29;20212;-68
2022/04/12 05:03:56;;;;;;;4.05;3.65;;;7.30;97.20;;;;;;1694388;29;20279;-68
2022/04/12 05:04:46;;;;;;;4.15;3.75;;;7.30;97.20;;;;;;1694098;29;20204;-68
2022/04/12 05:05:38;;;;;;;4.20;3.80;;;7.30;97.20;;;;;;1694170;29;20212;-68
2022/04/12 05:06:29;;;;;;;3.60;3.30;;;7.30;97.20;;;;;;1694116;29;20247;-68
2022/04/12 05:07:25;;;;;;;3.63;3.30;;;7.30;97.20;;;;;;1694245;29;20203;-68
2022/04/12 05:08:16;;;;;;;4.00;3.60;;;7.30;97.20;;;;;;1693797;29;20243;-68
2022/04/12 05:09:08;;;;;;;3.00;2.80;;;7.30;97.20;;;;;;1694207;29;20215;-68
2022/04/12 05:09:58;;;;;;;9.63;3.72;;;7.30;97.20;;;;;;1694221;29;20204;-68
2022/04/12 05:10:50;;;;;;;4.07;3.63;;;7.30;97.20;;;;;;1694186;29;20203;-68
2022/04/12 05:11:41;;;;;;;4.80;3.50;;;7.30;97.20;;;;;;1694263;29;20203;-67
2022/04/12 05:12:32;;;;;;;4.13;3.73;;;7.30;97.20;;;;;;1694202;29;20932;-68
2022/04/12 05:13:23;;;;;;;3.83;3.43;;;7.30;97.20;;;;;;1694013;29;20289;-68
2022/04/12 05:14:14;;;;;;;4.57;3.40;;;7.30;97.20;;;;;;1693993;29;20246;-68
2022/04/12 05:15:07;;;;;;;4.23;3.67;;;7.30;97.20;;;;;;1693773;29;20200;-67
2022/04/12 05:15:59;;;;;;;4.20;3.80;;;7.30;97.20;;;;;;1693902;29;20208;-68
2022/04/12 05:16:50;;;;;;;4.53;4.05;;;7.40;97.20;;;;;;1694322;29;20212;-68
2022/04/12 05:17:46;;;;;;;4.30;3.95;;;7.40;97.20;;;;;;1694243;29;20586;-68
2022/04/12 05:18:38;;;;;;;4.32;3.90;;;7.40;97.20;;;;;;1693953;29;20637;-69
2022/04/12 05:19:29;;;;;;;4.45;4.05;;;7.40;97.20;;;;;;1694123;29;20215;-68
2022/04/12 05:20:22;;;;;;;4.37;3.70;;;7.40;97.20;;;;;;1694311;29;20213;-69
2022/04/12 05:21:13;;;;;;;3.85;3.50;;;7.40;97.20;;;;;;1694118;29;20214;-69
2022/04/12 05:22:05;;;;;;;5.57;4.20;;;7.50;97.20;;;;;;1693999;29;20204;-69
2022/04/12 05:22:56;;;;;;;4.90;4.18;;;7.50;97.20;;;;;;1694127;29;20206;-72
2022/04/12 05:23:47;;;;;;;4.40;4.00;;;7.50;97.20;;;;;;1694163;29;20214;-68
2022/04/12 05:24:38;;;;;;;4.20;3.78;;;7.50;97.20;;;;;;1694165;29;20499;-68
2022/04/12 05:25:30;;;;;;;4.20;3.80;;;7.50;97.20;;;;;;1694187;29;20212;-68
2022/04/12 05:26:21;;;;;;;4.72;4.10;;;7.50;97.20;;;;;;1694109;29;20463;-68
2022/04/12 05:27:13;;;;;;;4.10;3.70;;;7.50;97.20;;;;;;1694145;29;20231;-68
2022/04/12 05:28:04;;;;;;;4.40;4.00;;;7.50;97.20;;;;;;1693766;29;20248;-68
2022/04/12 05:28:55;;;;;;;4.40;4.00;;;7.50;97.20;;;;;;1694250;29;20243;-68
2022/04/12 05:29:46;;;;;;;4.45;4.13;;;7.50;97.20;;;;;;1694057;29;20869;-69
2022/04/12 05:30:38;;;;;;;4.37;3.97;;;7.50;97.20;;;;;;1693023;29;20665;-69
2022/04/12 05:31:30;;;;;;;4.40;4.00;;;7.50;97.20;;;;;;1693196;29;20218;-69
2022/04/12 05:32:21;;;;;;;3.80;3.40;;;7.60;97.20;;;;;;1693994;29;20242;-69
2022/04/12 05:33:12;;;;;;;4.93;4.50;;;7.60;97.20;;;;;;1693504;29;20228;-69
2022/04/12 05:34:04;;;;;;;4.50;3.60;;;7.60;97.20;;;;;;1694004;29;20200;-69
2022/04/12 05:34:55;;;;;;;6.22;3.60;;;7.70;97.20;;;;;;1693743;29;20452;-69
2022/04/12 05:35:46;;;;;;;4.47;4.07;;;7.70;97.20;;;;;;1693214;29;20207;-68
2022/04/12 05:36:37;;;;;;;3.90;3.60;;;7.70;97.20;;;;;;1693662;29;20219;-69
2022/04/12 05:37:31;;;;;;;4.30;3.77;;;7.80;97.20;;;;;;1694033;29;20199;-69
2022/04/12 05:38:21;;;;;;;4.38;3.97;;;7.80;97.20;;;;;;1693511;29;20204;-69
2022/04/12 05:39:13;;;;;;;3.90;3.60;;;7.90;97.20;;;;;;1693708;29;20659;-69
2022/04/12 05:40:05;;;;;;;5.25;3.90;;;7.90;97.20;;;;;;1689567;29;20200;-68
2022/04/12 05:40:56;;;;;;;4.43;4.03;;;8.00;97.20;;;;;;1688092;29;20279;-69
2022/04/12 05:41:47;;;;;;;5.47;4.10;;;8.00;97.20;;;;;;1693935;29;20263;-69
2022/04/12 05:42:39;;;;;;;3.97;3.57;;;8.00;97.20;;;;;;1693299;29;20235;-69
2022/04/12 05:43:30;;;;;;;4.43;4.03;;;8.00;97.20;;;;;;1694043;29;20243;-69
2022/04/12 05:44:21;;;;;;;4.90;3.80;;;8.10;97.20;;;;;;1694196;29;20214;-70
2022/04/12 05:45:13;;;;;;;5.07;3.78;;;8.10;97.20;;;;;;1693837;29;20227;-69
2022/04/12 05:46:05;;;;;;;4.65;4.18;;;8.20;97.20;;;;;;1694071;29;20227;-69
2022/04/12 05:46:57;;;;;;;3.92;3.42;;;8.20;97.20;;;;;;1694110;29;20627;-69
2022/04/12 05:47:50;;;;;;;4.50;4.10;;;8.20;97.20;;;;;;1694153;29;20208;-68
2022/04/12 05:48:41;;;;;;;5.90;4.50;;;8.30;97.20;;;;;;1693724;29;20218;-68
2022/04/12 05:49:33;;;;;;;5.30;4.23;;;8.30;97.20;;;;;;1693990;29;20711;-69
2022/04/12 05:50:25;;;;;;;4.20;3.80;;;8.40;97.20;;;;;;1693618;29;20215;-69
2022/04/12 05:51:17;;;;;;;5.28;4.30;;;8.40;97.20;;;;;;1694098;29;20204;-68
2022/04/12 05:52:08;;;;;;;7.03;5.13;;;8.40;97.20;;;;;;1694164;29;20247;-68
2022/04/12 05:52:59;;;;;;;4.80;4.33;;;8.40;97.20;;;;;;1694065;29;20203;-68
2022/04/12 05:53:50;;;;;;;4.80;4.40;;;8.50;97.20;;;;;;1694172;29;20452;-69
2022/04/12 05:54:42;;;;;;;4.80;4.40;;;8.50;97.20;;;;;;1693848;29;20200;-69
2022/04/12 05:55:34;;;;;;;7.07;5.85;;;8.50;97.20;;;;;;1694044;29;20208;-69
2022/04/12 05:56:26;;;;;;;6.13;5.47;;;8.60;97.20;;;;;;1694090;29;20675;-69
2022/04/12 05:57:16;;;;;;;5.55;5.05;;;8.60;97.20;;;;;;1694120;29;20231;-68
2022/04/12 05:58:08;;;;;;;6.00;5.50;;;8.60;97.20;;;;;;1693851;29;20208;-68
2022/04/12 05:58:59;;;;;;;5.70;5.30;;;8.70;97.20;;;;;;1694128;29;20223;-68
2022/04/12 05:59:51;;;;;;;5.67;5.17;;;8.70;97.20;;;;;;1694078;29;20207;-69
2022/04/12 06:00:41;;;;;;;4.93;4.55;;;8.70;97.20;;;;;;1694055;29;20211;-69
2022/04/12 06:01:33;;;;;;;8.83;4.80;;;8.70;97.20;;;;;;1694069;29;20207;-69
2022/04/12 06:02:25;;;;;;;5.15;4.65;;;8.80;97.20;;;;;;1693955;29;20480;-69
2022/04/12 06:03:17;;;;;;;5.00;4.50;;;8.80;97.20;;;;;;1694147;29;20238;-69
2022/04/12 06:04:08;;;;;;;4.30;4.00;;;8.80;97.20;;;;;;1694156;29;20589;-69
2022/04/12 06:05:00;;;;;;;6.38;4.05;;;8.80;97.20;;;;;;1694082;29;20200;-69
2022/04/12 06:05:51;;;;;;;4.70;4.25;;;8.80;97.20;;;;;;1693866;29;20663;-69
2022/04/12 06:06:42;;;;;;;5.30;3.90;;;8.90;97.20;;;;;;1694079;29;20652;-69
2022/04/12 06:07:34;;;;;;;5.22;4.47;;;8.90;97.20;;;;;;1694881;29;20703;-69
2022/04/12 06:08:26;;;;;;;4.70;4.30;;;8.90;97.20;;;;;;1695057;29;20210;-69
2022/04/12 06:09:16;;;;;;;8.15;4.32;;;8.90;97.20;;;;;;1695275;29;20231;-69
2022/04/12 06:10:10;;;;;;;5.50;4.90;;;9.00;97.20;;;;;;1695269;29;20296;-68
2022/04/12 06:11:00;;;;;;;6.25;4.65;;;9.00;97.20;;;;;;1695270;29;20210;-69
2022/04/12 06:11:52;;;;;;;4.80;4.40;;;9.00;97.20;;;;;;1695407;29;20210;-69
2022/04/12 06:12:43;;;;;;;7.45;4.30;;;9.10;97.20;;;;;;1695278;29;20200;-68
2022/04/12 06:13:34;;;;;;;5.53;4.10;;;9.10;97.20;;;;;;1695145;29;20231;-68
2022/04/12 06:14:25;;;;;;;4.35;4.00;;;9.10;97.20;;;;;;1695229;29;20525;-68
2022/04/12 06:15:17;;;;;;;5.23;4.73;;;9.20;97.20;;;;;;1695461;29;20200;-68
2022/04/12 06:16:09;;;;;;;6.63;4.75;;;9.20;97.20;;;;;;1695278;29;20295;-68
2022/04/12 06:17:00;;;;;;;5.28;4.40;;;9.20;97.20;;;;;;1695252;29;20228;-69
2022/04/12 06:17:53;;;;;;;4.80;4.30;;;9.30;97.20;;;;;;1695298;29;20203;-69
2022/04/12 06:18:44;;;;;;;6.40;4.63;;;9.30;97.20;;;;;;1694592;29;20223;-69
2022/04/12 06:19:35;;;;;;;4.60;4.20;;;9.40;97.20;;;;;;1694851;29;20203;-69
2022/04/12 06:20:26;;;;;;;5.03;4.43;;;9.50;97.20;;;;;;1695282;29;20490;-68
2022/04/12 06:21:18;;;;;;;4.30;4.00;;;9.50;97.20;;;;;;1695416;29;20200;-68
2022/04/12 06:22:08;;;;;;;6.20;4.43;;;9.60;97.20;;;;;;1695365;29;20691;-71
2022/04/12 06:23:00;;;;;;;5.00;4.50;;;9.60;97.20;;;;;;1695190;29;20655;-69
2022/04/12 06:23:51;;;;;;;5.22;4.72;;;9.60;97.20;;;;;;1695275;29;20243;-68
2022/04/12 06:24:43;;;;;;;6.30;4.67;;;9.70;97.20;;;;;;1695325;29;20204;-71
2022/04/12 06:25:34;;;;;;;4.53;4.13;;;9.70;97.20;;;;;;1695278;29;20211;-68
2022/04/12 06:26:25;;;;;;;4.80;4.40;;;9.70;97.20;;;;;;1695225;29;20207;-68
2022/04/12 06:27:16;;;;;;;5.20;4.80;;;9.80;97.20;;;;;;1695232;29;20212;-69
2022/04/12 06:28:08;;;;;;;5.60;4.63;;;9.80;97.20;;;;;;1694865;29;20303;-68
2022/04/12 06:28:59;;;;;;;6.53;5.93;;;9.90;97.20;;;;;;1695343;29;20695;-68
2022/04/12 06:29:50;;;;;;;6.57;5.97;;;9.90;97.20;;;;;;1695154;29;20571;-69
2022/04/12 06:30:43;;;;;;;8.70;6.03;;;10.00;97.20;;;;;;1694716;29;20672;-68
2022/04/12 06:31:34;;;;;;;6.50;5.55;;;10.00;97.20;;;;;;1695145;29;20212;-70
2022/04/12 06:32:27;;;;;;;6.80;6.13;;;10.10;97.20;;;;;;1695159;29;20206;-68
2022/04/12 06:33:19;;;;;;;10.48;7.47;;;10.10;97.20;;;;;;1695155;29;20315;-68
2022/04/12 06:34:10;;;;;;;9.00;6.63;;;10.10;97.20;;;;;;1695175;29;20667;-68
2022/04/12 06:35:02;;;;;;;8.77;6.72;;;10.20;97.20;;;;;;1695204;29;20246;-68
2022/04/12 06:35:54;;;;;;;8.63;6.38;;;10.20;97.20;;;;;;1695217;29;20260;-69
2022/04/12 06:36:45;;;;;;;6.93;6.30;;;10.20;97.20;;;;;;1695035;29;20247;-68
2022/04/12 06:37:39;;;;;;;7.53;6.73;;;10.30;97.20;;;;;;1692965;29;20676;-68
2022/04/12 06:38:32;;;;;;;6.93;6.40;;;10.30;97.20;;;;;;1694059;29;20226;-68
2022/04/12 06:39:24;;;;;;;7.03;6.32;;;10.30;97.20;;;;;;1694395;29;20218;-67
2022/04/12 06:40:19;;;;;;;7.15;6.45;;;10.40;97.20;;;;;;1694617;29;20200;-67
2022/04/12 06:41:11;;;;;;;8.35;7.55;;;10.40;97.20;;;;;;1694722;29;20231;-68
2022/04/12 06:42:03;;;;;;;8.52;7.00;;;10.50;97.20;;;;;;1694665;29;20565;-68
2022/04/12 06:42:53;;;;;;;8.15;7.35;;;10.50;97.20;;;;;;1694605;29;20750;-68
2022/04/12 06:43:45;;;;;;;8.33;7.53;;;10.60;97.20;;;;;;1694527;29;20630;-68
2022/04/12 06:44:37;;;;;;;9.80;8.05;;;10.60;97.20;;;;;;1694392;29;20196;-68
2022/04/12 06:45:29;;;;;;;9.70;7.90;;;10.70;97.20;;;;;;1694520;29;20572;-68
2022/04/12 06:46:20;;;;;;;8.30;7.50;;;10.70;97.20;;;;;;1694679;29;20208;-68
2022/04/12 06:47:12;;;;;;;9.40;7.87;;;10.80;97.20;;;;;;1694686;29;20200;-68
2022/04/12 06:48:03;;;;;;;8.70;7.88;;;10.90;97.20;;;;;;1694414;29;20633;-68
2022/04/12 06:48:56;;;;;;;9.85;8.45;;;10.90;97.20;;;;;;1694680;29;20581;-68
2022/04/12 06:49:48;;;;;;;14.70;8.20;;;11.00;97.20;;;;;;1694897;29;20204;-68
2022/04/12 06:50:40;;;;;;;9.27;8.38;;;11.00;97.20;;;;;;1694741;29;20679;-68
2022/04/12 06:51:31;;;;;;;10.95;8.10;;;11.10;97.20;;;;;;1694610;29;20208;-68
2022/04/12 06:52:23;;;;;;;11.57;9.10;;;11.20;97.20;;;;;;1694894;29;20196;-68
2022/04/12 06:53:14;;;;;;;13.32;9.07;;;11.20;97.20;;;;;;1694223;29;20238;-68
2022/04/12 06:54:06;;;;;;;9.90;8.40;;;11.30;97.20;;;;;;1699756;29;20195;-68
2022/04/12 06:54:56;;;;;;;14.27;8.18;;;11.40;97.20;;;;;;1697314;29;20200;-68
2022/04/12 06:55:49;;;;;;;13.90;8.80;;;11.40;97.20;;;;;;1701240;29;20201;-68
2022/04/12 06:56:39;;;;;;;10.57;8.18;;;11.50;97.20;;;;;;1697597;29;20204;-68
2022/04/12 06:57:32;;;;;;;11.40;9.00;;;11.60;97.20;;;;;;1700777;29;20203;-68
2022/04/12 06:58:24;;;;;;;8.98;7.93;;;11.60;97.20;;;;;;1697941;29;20204;-68
2022/04/12 06:59:16;;;;;;;9.40;8.18;;;11.70;97.20;;;;;;1700496;29;20207;-68
2022/04/12 07:00:09;;;;;;;10.85;8.30;;;11.80;97.20;;;;;;1698676;29;20199;-67
2022/04/12 07:01:00;;;;;;;10.68;9.05;;;11.80;97.20;;;;;;1694852;29;20694;-68
2022/04/12 07:01:52;;;;;;;14.43;7.97;;;11.90;97.20;;;;;;1694685;29;20203;-68
2022/04/12 07:02:44;;;;;;;15.60;8.50;;;12.00;97.20;;;;;;1694509;29;20204;-68
2022/04/12 07:03:35;;;;;;;8.77;7.50;;;12.00;97.20;;;;;;1694356;29;20738;-68
2022/04/12 07:04:28;;;;;;;7.67;7.00;;;12.10;97.20;;;;;;1694901;29;20619;-68
2022/04/12 07:05:19;;;;;;;8.75;7.75;;;12.20;97.20;;;;;;1688913;29;20204;-68
2022/04/12 07:06:11;;;;;;;8.33;7.53;;;12.20;97.20;;;;;;1698784;29;20202;-68
2022/04/12 07:07:03;;;;;;;8.88;8.00;;;12.20;97.20;;;;;;1701206;29;20443;-68
2022/04/12 07:07:54;;;;;;;8.80;7.90;;;12.30;97.20;;;;;;1701153;29;20226;-68
2022/04/12 07:08:45;;;;;;;9.73;7.30;;;12.30;97.20;;;;;;1700691;29;20207;-68
2022/04/12 07:09:37;;;;;;;9.43;8.33;;;12.40;97.20;;;;;;1701068;29;20233;-68
2022/04/12 07:10:27;;;;;;;9.52;8.48;;;12.50;97.20;;;;;;1701018;29;20249;-68
2022/04/12 07:11:20;;;;;;;8.90;8.10;;;12.60;97.20;;;;;;1701204;29;20210;-69
2022/04/12 07:12:10;;;;;;;8.73;7.82;;;12.60;97.20;;;;;;1701306;29;20214;-68
2022/04/12 07:13:02;;;;;;;9.87;8.30;;;12.70;97.20;;;;;;1701185;29;20225;-68
2022/04/12 07:13:53;;;;;;;9.23;8.32;;;12.70;97.20;;;;;;1701148;29;20214;-68
2022/04/12 07:14:44;;;;;;;13.13;8.50;;;12.80;97.20;;;;;;1696801;29;20202;-69
2022/04/12 07:15:35;;;;;;;8.40;7.60;;;12.90;97.20;;;;;;1697820;29;20208;-69
2022/04/12 07:16:27;;;;;;;8.07;7.27;;;13.00;97.20;;;;;;1694828;29;20282;-68
2022/04/12 07:17:18;;;;;;;8.48;7.63;;;13.00;97.20;;;;;;1694383;29;20260;-69
2022/04/12 07:18:09;;;;;;;7.87;7.17;;;13.10;97.20;;;;;;1693910;29;20207;-69
2022/04/12 07:19:00;;;;;;;7.90;7.20;;;13.20;97.20;;;;;;1694415;29;20208;-68
2022/04/12 07:19:53;;;;;;;8.00;7.30;;;13.20;97.20;;;;;;1694295;29;20287;-69
2022/04/12 07:20:44;;;;;;;10.30;8.18;;;13.30;97.20;;;;;;1694345;29;20238;-69
2022/04/12 07:21:35;;;;;;;8.20;7.40;;;13.40;97.20;;;;;;1694998;29;20204;-69
2022/04/12 07:22:26;;;;;;;7.57;6.88;;;13.50;97.20;;;;;;1694888;29;20208;-68
2022/04/12 07:23:18;;;;;;;7.33;6.67;;;13.50;97.20;;;;;;1694828;29;20248;-68
2022/04/12 07:24:09;;;;;;;7.72;6.78;;;13.60;97.20;;;;;;1694899;29;20199;-68
2022/04/12 07:25:01;;;;;;;7.45;6.47;;;13.60;97.20;;;;;;1694894;29;20196;-69
2022/04/12 07:25:52;;;;;;;8.32;7.30;;;13.70;97.20;;;;;;1694836;29;20244;-68
2022/04/12 07:26:44;;;;;;;7.00;6.32;;;13.70;97.20;;;;;;1694760;29;20676;-69
2022/04/12 07:27:36;;;;;;;8.52;6.60;;;13.70;97.20;;;;;;1694925;29;20238;-69
2022/04/12 07:28:28;;;;;;;8.98;6.80;;;13.70;97.20;;;;;;1694517;29;20200;-68
2022/04/12 07:29:18;;;;;;;6.85;5.90;;;13.70;97.20;;;;;;1694758;29;20214;-68
2022/04/12 07:30:11;;;;;;;8.57;6.67;;;13.80;97.20;;;;;;1694826;29;20199;-69
2022/04/12 07:31:02;;;;;;;7.88;6.80;;;13.80;97.20;;;;;;1694949;29;20257;-71
2022/04/12 07:31:53;;;;;;;7.03;6.32;;;13.80;97.20;;;;;;1694930;29;20702;-69
2022/04/12 07:32:45;;;;;;;7.00;6.35;;;13.90;97.20;;;;;;1694778;29;20243;-69
2022/04/12 07:33:36;;;;;;;13.60;6.60;;;13.90;97.20;;;;;;1694427;29;20247;-68
2022/04/12 07:34:28;;;;;;;7.50;6.43;;;13.90;97.20;;;;;;1694833;29;20210;-69
2022/04/12 07:35:22;;;;;;;6.32;5.65;;;13.90;97.20;;;;;;1694785;29;20690;-69
2022/04/12 07:36:14;;;;;;;8.35;6.78;;;14.00;97.20;;;;;;1694873;29;20299;-68
2022/04/12 07:37:08;;;;;;;9.10;7.07;;;14.00;97.20;;;;;;1694781;29;20200;-68
2022/04/12 07:37:58;;;;;;;7.88;6.63;;;14.10;97.20;;;;;;1694673;29;20699;-68
2022/04/12 07:38:50;;;;;;;9.00;6.97;;;14.10;97.20;;;;;;1694522;29;20635;-69
2022/04/12 07:39:42;;;;;;;7.32;6.63;;;14.10;97.20;;;;;;1693555;29;20219;-68
2022/04/12 07:40:33;;;;;;;7.30;6.35;;;14.10;97.20;;;;;;1694576;29;20212;-69
2022/04/12 07:41:24;;;;;;;7.13;6.43;;;14.20;97.20;;;;;;1694492;29;20671;-68
2022/04/12 07:42:16;;;;;;;10.03;7.33;;;14.20;97.20;;;;;;1694619;29;20291;-68
2022/04/12 07:43:07;;;;;;;9.85;6.75;;;14.30;97.20;;;;;;1694266;29;20455;-69
2022/04/12 07:43:59;;;;;;;9.27;7.03;;;14.30;97.20;;;;;;1694527;29;20208;-68
2022/04/12 07:44:50;;;;;;;9.07;6.30;;;14.40;97.20;;;;;;1694328;29;20208;-68
2022/04/12 07:45:41;;;;;;;7.72;6.93;;;14.40;97.20;;;;;;1694489;29;20211;-69
2022/04/12 07:46:32;;;;;;;9.90;7.05;;;14.50;97.20;;;;;;1694617;29;20208;-68
2022/04/12 07:47:24;;;;;;;7.53;6.80;;;14.50;97.20;;;;;;1694532;29;20204;-68
2022/04/12 07:48:14;;;;;;;8.63;6.95;;;14.60;97.20;;;;;;1694225;29;20219;-69
2022/04/12 07:49:06;;;;;;;8.97;6.47;;;14.60;97.20;;;;;;1698916;29;20191;-68
2022/04/12 07:49:58;;;;;;;7.38;6.53;;;14.70;97.20;;;;;;1694388;29;20834;-68
2022/04/12 07:50:51;;;;;;;10.23;6.72;;;14.80;97.20;;;;;;1694191;29;20347;-68
2022/04/12 07:51:43;;;;;;;8.02;6.47;;;14.80;97.20;;;;;;1694464;29;20207;-68
2022/04/12 07:52:34;;;;;;;7.07;5.85;;;14.90;97.20;;;;;;1694493;29;20577;-68
2022/04/12 07:53:25;;;;;;;7.95;7.13;;;14.90;97.20;;;;;;1694372;29;20220;-68
2022/04/12 07:54:17;;;;;;;9.20;6.47;;;15.00;97.20;;;;;;1694533;29;20199;-68
2022/04/12 07:55:08;;;;;;;7.22;6.53;;;15.10;97.20;;;;;;1694325;29;20618;-68
2022/04/12 07:56:00;;;;;;;6.53;5.32;;;15.20;97.20;;;;;;1694278;29;20234;-69
2022/04/12 07:56:51;;;;;;;7.40;6.70;;;15.30;97.20;;;;;;1693416;29;20231;-67
2022/04/12 07:57:43;;;;;;;7.45;6.68;;;15.40;97.20;;;;;;1693779;29;20691;-69
2022/04/12 07:58:34;;;;;;;7.28;6.50;;;15.50;97.20;;;;;;1695074;29;20222;-68
2022/04/12 07:59:25;;;;;;;6.87;6.17;;;15.60;97.20;;;;;;1700853;29;20209;-68
2022/04/12 08:00:16;;;;;;;6.60;6.00;;;15.70;97.20;;;;;;1700995;29;20253;-68
2022/04/12 08:01:08;;;;;;;9.10;6.43;;;15.70;97.20;;;;;;1700922;29;20218;-69
2022/04/12 08:01:59;;;;;;;7.45;6.10;;;15.80;97.20;;;;;;1700964;29;20481;-71
2022/04/12 08:02:51;;;;;;;6.93;6.23;;;15.90;97.20;;;;;;1701169;29;20210;-71
2022/04/12 08:03:41;;;;;;;6.60;6.00;;;16.00;97.20;;;;;;1700912;29;20227;-69
2022/04/12 08:04:33;;;;;;;6.90;6.27;;;16.10;97.20;;;;;;1700576;29;20219;-69
2022/04/12 08:05:24;;;;;;;6.35;5.80;;;16.10;97.20;;;;;;1695183;29;20267;-69
2022/04/12 08:06:17;;;;;;;7.10;6.50;;;16.20;97.20;;;;;;1693985;29;20203;-70
2022/04/12 08:07:07;;;;;;;7.88;5.85;;;16.30;97.20;;;;;;1694311;29;20265;-68
2022/04/12 08:07:59;;;;;;;6.80;6.10;;;16.40;97.20;;;;;;1693523;29;20203;-68
2022/04/12 08:08:50;;;;;;;6.88;6.13;;;16.50;97.20;;;;;;1693720;29;20223;-68
2022/04/12 08:09:42;;;;;;;8.47;6.73;;;16.60;97.20;;;;;;1693980;29;20216;-71
2022/04/12 08:10:32;;;;;;;7.63;6.80;;;16.70;97.20;;;;;;1694163;29;20215;-68
2022/04/12 08:11:24;;;;;;;11.03;6.57;;;16.80;97.20;;;;;;1694239;29;20233;-68
2022/04/12 08:12:15;;;;;;;6.70;6.00;;;16.90;97.20;;;;;;1694312;29;20827;-68
2022/04/12 08:13:06;;;;;;;9.67;7.03;;;17.00;97.20;;;;;;1693972;29;20635;-68
2022/04/12 08:13:57;;;;;;;8.32;5.85;;;17.10;97.20;;;;;;1694176;29;20238;-68
2022/04/12 08:14:49;;;;;;;5.80;5.30;;;17.20;97.20;;;;;;1696533;29;20196;-69
2022/04/12 08:15:40;;;;;;;6.03;5.43;;;17.20;97.20;;;;;;1700822;29;20213;-68
2022/04/12 08:16:31;;;;;;;7.23;6.40;;;17.30;97.20;;;;;;1700785;29;20206;-68
2022/04/12 08:17:22;;;;;;;8.27;5.80;;;17.40;97.20;;;;;;1700667;29;20234;-69
2022/04/12 08:18:14;;;;;;;5.97;5.40;;;17.40;97.20;;;;;;1700464;29;20206;-68
2022/04/12 08:19:05;;;;;;;5.70;5.20;;;17.50;97.20;;;;;;1700707;29;20270;-69
2022/04/12 08:19:56;;;;;;;6.33;5.40;;;17.50;97.20;;;;;;1700395;29;20203;-69
2022/04/12 08:20:49;;;;;;;5.63;5.13;;;17.60;97.20;;;;;;1700364;29;20486;-69
2022/04/12 08:21:42;;;;;;;8.60;5.40;;;17.60;97.20;;;;;;1696704;29;20243;-69
2022/04/12 08:22:33;;;;;;;7.15;5.65;;;17.60;97.20;;;;;;1693992;29;20212;-69
2022/04/12 08:23:25;;;;;;;6.07;5.47;;;17.70;97.20;;;;;;1693685;29;20227;-69
2022/04/12 08:24:16;;;;;;;5.82;5.32;;;17.80;97.20;;;;;;1693308;29;20674;-67
2022/04/12 08:25:09;;;;;;;9.10;5.80;;;17.80;97.20;;;;;;1693905;29;20549;-68
2022/04/12 08:26:01;;;;;;;8.05;5.80;;;17.90;97.20;;;;;;1694091;29;20409;-68
2022/04/12 08:26:53;;;;;;;5.95;5.43;;;18.00;97.20;;;;;;1694241;29;20603;-68
2022/04/12 08:27:44;;;;;;;5.00;4.50;;;18.10;97.20;;;;;;1694034;29;20240;-68
2022/04/12 08:28:35;;;;;;;5.50;4.90;;;18.10;97.20;;;;;;1693371;29;20200;-69
2022/04/12 08:29:26;;;;;;;6.45;5.85;;;18.10;97.20;;;;;;1693718;29;20247;-69
2022/04/12 08:30:18;;;;;;;5.80;5.07;;;18.20;97.20;;;;;;1693032;29;20207;-67
2022/04/12 08:31:09;;;;;;;5.75;4.78;;;18.30;97.20;;;;;;1692316;29;20199;-69
2022/04/12 08:32:01;;;;;;;6.82;4.45;;;18.30;96.80;;;;;;1693737;29;20200;-69
2022/04/12 08:32:52;;;;;;;4.82;4.05;;;18.40;97.10;;;;;;1693906;29;20252;-69
2022/04/12 08:33:44;;;;;;;7.13;5.00;;;18.40;97.20;;;;;;1693604;29;20236;-69
2022/04/12 08:34:35;;;;;;;5.68;4.28;;;18.50;97.20;;;;;;1693781;29;20286;-69
2022/04/12 08:35:27;;;;;;;4.75;4.13;;;18.60;96.50;;;;;;1694404;29;20208;-70
2022/04/12 08:36:21;;;;;;;4.50;4.10;;;18.80;96.50;;;;;;1694520;29;20684;-70
2022/04/12 08:37:13;;;;;;;5.03;4.45;;;18.90;96.40;;;;;;1694504;29;20560;-69
2022/04/12 08:38:05;;;;;;;5.28;4.68;;;19.00;96.40;;;;;;1694050;29;20583;-69
2022/04/12 08:38:57;;;;;;;4.60;4.10;;;19.10;96.10;;;;;;1694420;29;20714;-69
2022/04/12 08:39:48;;;;;;;5.03;3.60;;;19.20;95.90;;;;;;1694316;29;20214;-69
2022/04/12 08:40:41;;;;;;;6.00;4.53;;;19.40;95.90;;;;;;1694381;29;20295;-68
2022/04/12 08:41:34;;;;;;;5.93;4.25;;;19.50;95.40;;;;;;1694385;29;20448;-68
2022/04/12 08:42:26;;;;;;;4.10;3.70;;;19.60;95.70;;;;;;1693088;29;20222;-68
2022/04/12 08:43:18;;;;;;;5.50;3.80;;;19.70;95.00;;;;;;1694248;29;20266;-68
2022/04/12 08:44:11;;;;;;;7.85;4.15;;;19.80;94.60;;;;;;1694368;29;20671;-68
2022/04/12 08:45:03;;;;;;;4.70;4.30;;;19.90;94.60;;;;;;1694045;29;20211;-68
2022/04/12 08:45:56;;;;;;;5.20;4.53;;;20.00;94.10;;;;;;1694239;29;20323;-68
2022/04/12 08:46:48;;;;;;;5.80;3.60;;;20.20;93.70;;;;;;1694183;29;20216;-68
2022/04/12 08:47:39;;;;;;;7.15;3.90;;;20.30;93.40;;;;;;1694292;29;20263;-69
2022/04/12 08:48:31;;;;;;;8.35;3.53;;;20.30;92.80;;;;;;1692840;29;20255;-68
2022/04/12 08:49:26;;;;;;;3.90;3.40;;;20.40;91.70;;;;;;1694171;29;20232;-68
2022/04/12 08:50:19;;;;;;;3.72;3.05;;;20.40;91.80;;;;;;1694360;29;20215;-68
2022/04/12 08:51:11;;;;;;;4.35;3.10;;;20.50;92.30;;;;;;1693460;29;20664;-69
2022/04/12 08:52:02;;;;;;;5.32;3.53;;;20.60;92.30;;;;;;1690586;29;20204;-69
2022/04/12 08:52:55;;;;;;;3.42;2.80;;;20.70;91.50;;;;;;1693593;29;20627;-69
2022/04/12 08:53:46;;;;;;;4.65;3.30;;;20.80;91.40;;;;;;1693307;29;20255;-69
2022/04/12 08:54:39;;;;;;;3.78;3.30;;;20.90;91.10;;;;;;1693507;29;20208;-68
2022/04/12 08:55:31;;;;;;;6.50;3.17;;;21.10;91.30;;;;;;1693523;29;20295;-68
2022/04/12 08:56:23;;;;;;;6.07;3.40;;;21.20;90.70;;;;;;1693616;29;20200;-69
2022/04/12 08:57:14;;;;;;;6.97;3.78;;;21.30;90.00;;;;;;1693504;29;20244;-68
2022/04/12 08:58:06;;;;;;;5.00;3.60;;;21.30;90.00;;;;;;1693132;29;20204;-67
2022/04/12 08:58:58;;;;;;;4.78;3.30;;;21.50;89.90;;;;;;1693878;29;20239;-70
2022/04/12 08:59:48;;;;;;;3.85;3.17;;;21.60;90.00;;;;;;1694123;29;20215;-70
2022/04/12 09:00:40;;;;;;;4.20;3.50;;;21.70;90.00;;;;;;1694163;29;20294;-71
2022/04/12 09:01:31;;;;;;;3.95;3.63;;;21.70;89.50;;;;;;1694005;29;20207;-68
2022/04/12 09:02:23;;;;;;;4.13;3.73;;;21.80;89.30;;;;;;1694170;29;20207;-70
2022/04/12 09:03:14;;;;;;;3.72;3.42;;;21.80;89.50;;;;;;1694025;29;20243;-70
2022/04/12 09:04:07;;;;;;;3.83;3.53;;;21.90;89.00;;;;;;1694121;29;20726;-70
2022/04/12 09:04:57;;;;;;;4.00;3.60;;;22.00;88.20;;;;;;1694221;29;20207;-70
2022/04/12 09:05:49;;;;;;;4.77;3.70;;;22.00;88.10;;;;;;1694120;29;20271;-70
2022/04/12 09:06:50;;;;;;;4.70;4.30;;;22.10;88.30;;;;;;1694223;29;20208;-71
2022/04/12 09:07:47;;;;;;;5.57;4.30;;;22.20;88.10;;;;;;1694163;29;20243;-70
2022/04/12 09:08:39;;;;;;;5.70;4.47;;;22.20;88.10;;;;;;1694262;29;20227;-70
2022/04/12 09:09:31;;;;;;;4.55;3.83;;;22.20;87.70;;;;;;1694415;29;20290;-71
2022/04/12 09:10:33;;;;;;;4.07;3.67;;;22.20;87.60;;;;;;1694190;29;20739;-70
2022/04/12 09:11:24;;;;;;;7.65;4.20;;;22.20;87.20;;;;;;1694166;29;20250;-70
2022/04/12 09:12:17;;;;;;;4.53;4.07;;;22.20;87.00;;;;;;1694179;29;20204;-71
2022/04/12 09:13:12;;;;;;;6.03;3.90;;;22.20;87.00;;;;;;1693873;29;20254;-70
2022/04/12 09:14:04;;;;;;;6.63;4.03;;;22.30;87.20;;;;;;1694158;29;20625;-70
2022/04/12 09:14:57;;;;;;;5.10;4.53;;;22.30;86.60;;;;;;1694200;29;20208;-70
2022/04/12 09:15:48;;;;;;;9.65;4.95;;;22.40;87.00;;;;;;1694066;29;20204;-70
2022/04/12 09:16:43;;;;;;;5.27;4.10;;;22.50;87.20;;;;;;1694218;29;20200;-70
2022/04/12 09:17:36;;;;;;;12.95;5.07;;;22.80;86.90;;;;;;1694268;29;20212;-70
2022/04/12 09:18:36;;;;;;;7.57;4.43;;;23.10;86.50;;;;;;1693912;29;20723;-70
2022/04/12 09:19:38;;;;;;;4.32;3.92;;;23.40;85.30;;;;;;1694043;29;20214;-69
2022/04/12 09:20:30;;;;;;;5.40;4.22;;;23.90;84.50;;;;;;1694137;29;20208;-70
2022/04/12 09:21:24;;;;;;;5.22;3.42;;;24.50;83.90;;;;;;1694236;29;20360;-69
2022/04/12 09:22:16;;;;;;;7.53;4.28;;;25.20;83.10;;;;;;1694211;29;20250;-70
2022/04/12 09:23:15;;;;;;;4.43;4.03;;;25.80;81.80;;;;;;1693786;29;20571;-70
2022/04/12 09:24:08;;;;;;;3.97;3.63;;;26.50;80.30;;;;;;1687485;29;20296;-69
2022/04/12 09:25:01;;;;;;;5.35;4.40;;;27.10;79.30;;;;;;1690470;29;20291;-71
2022/04/12 09:25:53;;;;;;;4.22;3.75;;;27.70;78.40;;;;;;1694077;29;20219;-70
2022/04/12 09:26:54;;;;;;;5.82;4.07;;;28.20;77.00;;;;;;1693938;29;20212;-71
2022/04/12 09:27:49;;;;;;;4.75;4.25;;;28.90;76.10;;;;;;1694078;29;20235;-71
2022/04/12 09:28:41;;;;;;;6.40;4.15;;;29.80;75.20;;;;;;1693850;29;20516;-71
2022/04/12 09:29:32;;;;;;;4.65;4.15;;;30.50;73.90;;;;;;1693998;29;20260;-71
2022/04/12 09:30:24;;;;;;;4.15;3.78;;;31.20;72.70;;;;;;1693789;29;20237;-69
2022/04/12 09:31:17;;;;;;;4.50;4.10;;;31.90;71.70;;;;;;1694172;29;20207;-69